sensor_id;sensor_type;location;lat;lon;timestamp;P1;durP1;ratioP1;P2;durP2;ratioP2
49610;SDS011;35515;48.766;9.176;2023-09-12T00:01:09;13.27;;;8.18;;
49610;SDS011;35515;48.766;9.176;2023-09-12T00:03:35;10.73;;;7.95;;
49610;SDS011;35515;48.766;9.176;2023-09-12T00:06:02;11.52;;;7.75;;
49610;SDS011;35515;48.766;9.176;2023-09-12T00:08:29;13.00;;;7.88;;
49610;SDS011;35515;48.766;9.176;2023-09-12T00:11:02;15.18;;;8.55;;
49610;SDS011;35515;48.766;9.176;2023-09-12T00:13:30;12.55;;;8.30;;
49610;SDS011;35515;48.766;9.176;2023-09-12T00:15:58;9.88;;;7.28;;
49610;SDS011;35515;48.766;9.176;2023-09-12T00:18:25;12.93;;;7.88;;
49610;SDS011;35515;48.766;9.176;2023-09-12T00:20:52;14.35;;;8.45;;
49610;SDS011;35515;48.766;9.176;2023-09-12T00:23:20;11.63;;;7.25;;
49610;SDS011;35515;48.766;9.176;2023-09-12T00:25:47;15.27;;;7.85;;
49610;SDS011;35515;48.766;9.176;2023-09-12T00:28:14;11.18;;;7.78;;
49610;SDS011;35515;48.766;9.176;2023-09-12T00:30:41;12.50;;;8.23;;
49610;SDS011;35515;48.766;9.176;2023-09-12T00:33:08;11.73;;;8.20;;
49610;SDS011;35515;48.766;9.176;2023-09-12T00:35:35;12.85;;;8.05;;
49610;SDS011;35515;48.766;9.176;2023-09-12T00:38:02;11.57;;;7.63;;
49610;SDS011;35515;48.766;9.176;2023-09-12T00:40:28;11.57;;;8.18;;
49610;SDS011;35515;48.766;9.176;2023-09-12T00:42:55;12.60;;;8.13;;
49610;SDS011;35515;48.766;9.176;2023-09-12T00:45:22;12.57;;;8.05;;
49610;SDS011;35515;48.766;9.176;2023-09-12T00:47:48;13.30;;;8.30;;
49610;SDS011;35515;48.766;9.176;2023-09-12T00:50:16;11.30;;;8.52;;
49610;SDS011;35515;48.766;9.176;2023-09-12T00:52:44;10.68;;;7.60;;
49610;SDS011;35515;48.766;9.176;2023-09-12T00:55:11;13.23;;;8.43;;
49610;SDS011;35515;48.766;9.176;2023-09-12T00:57:38;14.55;;;8.20;;
49610;SDS011;35515;48.766;9.176;2023-09-12T01:00:05;12.75;;;8.68;;
49610;SDS011;35515;48.766;9.176;2023-09-12T01:02:36;10.45;;;8.05;;
49610;SDS011;35515;48.766;9.176;2023-09-12T01:05:03;11.75;;;8.18;;
49610;SDS011;35515;48.766;9.176;2023-09-12T01:07:33;11.98;;;8.18;;
49610;SDS011;35515;48.766;9.176;2023-09-12T01:10:00;12.10;;;7.97;;
49610;SDS011;35515;48.766;9.176;2023-09-12T01:12:27;12.05;;;8.38;;
49610;SDS011;35515;48.766;9.176;2023-09-12T01:14:55;12.30;;;8.60;;
49610;SDS011;35515;48.766;9.176;2023-09-12T01:17:22;12.38;;;9.10;;
49610;SDS011;35515;48.766;9.176;2023-09-12T01:19:49;10.68;;;8.00;;
49610;SDS011;35515;48.766;9.176;2023-09-12T01:25:19;17.13;;;8.93;;
49610;SDS011;35515;48.766;9.176;2023-09-12T01:28:19;11.02;;;7.88;;
49610;SDS011;35515;48.766;9.176;2023-09-12T01:30:50;14.00;;;7.88;;
49610;SDS011;35515;48.766;9.176;2023-09-12T01:33:18;12.32;;;8.75;;
49610;SDS011;35515;48.766;9.176;2023-09-12T01:35:45;10.93;;;8.55;;
49610;SDS011;35515;48.766;9.176;2023-09-12T01:38:12;11.07;;;8.05;;
49610;SDS011;35515;48.766;9.176;2023-09-12T01:40:41;12.35;;;8.45;;
49610;SDS011;35515;48.766;9.176;2023-09-12T01:43:10;11.80;;;8.38;;
49610;SDS011;35515;48.766;9.176;2023-09-12T01:45:43;12.98;;;7.70;;
49610;SDS011;35515;48.766;9.176;2023-09-12T01:48:10;14.35;;;8.82;;
49610;SDS011;35515;48.766;9.176;2023-09-12T01:50:38;13.95;;;8.50;;
49610;SDS011;35515;48.766;9.176;2023-09-12T01:53:05;12.70;;;7.97;;
49610;SDS011;35515;48.766;9.176;2023-09-12T01:55:31;13.13;;;8.95;;
49610;SDS011;35515;48.766;9.176;2023-09-12T01:57:59;14.50;;;8.70;;
49610;SDS011;35515;48.766;9.176;2023-09-12T02:00:26;12.48;;;8.60;;
49610;SDS011;35515;48.766;9.176;2023-09-12T02:02:54;14.63;;;9.05;;
49610;SDS011;35515;48.766;9.176;2023-09-12T02:05:21;11.45;;;7.68;;
49610;SDS011;35515;48.766;9.176;2023-09-12T02:07:48;12.55;;;8.77;;
49610;SDS011;35515;48.766;9.176;2023-09-12T02:10:15;11.68;;;7.32;;
49610;SDS011;35515;48.766;9.176;2023-09-12T02:12:41;11.75;;;8.25;;
49610;SDS011;35515;48.766;9.176;2023-09-12T02:15:08;12.10;;;8.02;;
49610;SDS011;35515;48.766;9.176;2023-09-12T02:17:35;13.95;;;8.20;;
49610;SDS011;35515;48.766;9.176;2023-09-12T02:20:06;13.23;;;8.30;;
49610;SDS011;35515;48.766;9.176;2023-09-12T02:22:33;14.30;;;8.27;;
49610;SDS011;35515;48.766;9.176;2023-09-12T02:24:59;13.18;;;8.00;;
49610;SDS011;35515;48.766;9.176;2023-09-12T02:27:26;14.40;;;7.93;;
49610;SDS011;35515;48.766;9.176;2023-09-12T02:29:52;12.40;;;8.10;;
49610;SDS011;35515;48.766;9.176;2023-09-12T02:32:20;9.82;;;7.57;;
49610;SDS011;35515;48.766;9.176;2023-09-12T02:34:46;12.63;;;7.55;;
49610;SDS011;35515;48.766;9.176;2023-09-12T02:37:14;14.18;;;9.10;;
49610;SDS011;35515;48.766;9.176;2023-09-12T02:39:41;13.50;;;7.85;;
49610;SDS011;35515;48.766;9.176;2023-09-12T02:42:08;13.32;;;8.93;;
49610;SDS011;35515;48.766;9.176;2023-09-12T02:44:34;13.05;;;7.40;;
49610;SDS011;35515;48.766;9.176;2023-09-12T02:47:01;13.68;;;8.07;;
49610;SDS011;35515;48.766;9.176;2023-09-12T02:49:27;12.32;;;8.32;;
49610;SDS011;35515;48.766;9.176;2023-09-12T02:51:54;13.50;;;8.15;;
49610;SDS011;35515;48.766;9.176;2023-09-12T02:54:22;14.13;;;8.07;;
49610;SDS011;35515;48.766;9.176;2023-09-12T02:56:48;11.43;;;8.00;;
49610;SDS011;35515;48.766;9.176;2023-09-12T02:59:15;13.65;;;6.97;;
49610;SDS011;35515;48.766;9.176;2023-09-12T03:01:41;13.65;;;8.13;;
49610;SDS011;35515;48.766;9.176;2023-09-12T03:04:08;14.65;;;8.15;;
49610;SDS011;35515;48.766;9.176;2023-09-12T03:06:34;17.35;;;8.75;;
49610;SDS011;35515;48.766;9.176;2023-09-12T03:09:01;12.82;;;9.23;;
49610;SDS011;35515;48.766;9.176;2023-09-12T03:11:30;13.70;;;7.85;;
49610;SDS011;35515;48.766;9.176;2023-09-12T03:13:57;16.20;;;8.82;;
49610;SDS011;35515;48.766;9.176;2023-09-12T03:16:23;12.88;;;8.60;;
49610;SDS011;35515;48.766;9.176;2023-09-12T03:18:50;13.13;;;8.20;;
49610;SDS011;35515;48.766;9.176;2023-09-12T03:21:16;13.60;;;8.93;;
49610;SDS011;35515;48.766;9.176;2023-09-12T03:23:43;10.55;;;8.38;;
49610;SDS011;35515;48.766;9.176;2023-09-12T03:26:09;11.85;;;7.97;;
49610;SDS011;35515;48.766;9.176;2023-09-12T03:28:37;11.93;;;8.15;;
49610;SDS011;35515;48.766;9.176;2023-09-12T03:31:06;12.30;;;8.68;;
49610;SDS011;35515;48.766;9.176;2023-09-12T03:33:36;12.50;;;8.90;;
49610;SDS011;35515;48.766;9.176;2023-09-12T03:36:03;10.75;;;8.18;;
49610;SDS011;35515;48.766;9.176;2023-09-12T03:38:30;14.52;;;8.18;;
49610;SDS011;35515;48.766;9.176;2023-09-12T03:40:57;12.95;;;8.95;;
49610;SDS011;35515;48.766;9.176;2023-09-12T03:43:23;11.57;;;8.48;;
49610;SDS011;35515;48.766;9.176;2023-09-12T03:45:51;11.13;;;8.10;;
49610;SDS011;35515;48.766;9.176;2023-09-12T03:48:18;10.85;;;8.90;;
49610;SDS011;35515;48.766;9.176;2023-09-12T03:50:44;10.43;;;8.07;;
49610;SDS011;35515;48.766;9.176;2023-09-12T03:53:12;14.63;;;8.48;;
49610;SDS011;35515;48.766;9.176;2023-09-12T03:55:40;13.90;;;8.90;;
49610;SDS011;35515;48.766;9.176;2023-09-12T03:58:06;12.45;;;8.73;;
49610;SDS011;35515;48.766;9.176;2023-09-12T04:00:33;12.45;;;8.32;;
49610;SDS011;35515;48.766;9.176;2023-09-12T04:03:01;13.73;;;9.02;;
49610;SDS011;35515;48.766;9.176;2023-09-12T04:05:27;10.43;;;8.20;;
49610;SDS011;35515;48.766;9.176;2023-09-12T04:07:54;16.20;;;9.35;;
49610;SDS011;35515;48.766;9.176;2023-09-12T04:10:20;14.85;;;9.00;;
49610;SDS011;35515;48.766;9.176;2023-09-12T04:12:47;12.55;;;8.77;;
49610;SDS011;35515;48.766;9.176;2023-09-12T04:15:14;13.77;;;8.63;;
49610;SDS011;35515;48.766;9.176;2023-09-12T04:17:40;11.75;;;8.30;;
49610;SDS011;35515;48.766;9.176;2023-09-12T04:20:08;14.95;;;9.13;;
49610;SDS011;35515;48.766;9.176;2023-09-12T04:22:38;12.10;;;8.32;;
49610;SDS011;35515;48.766;9.176;2023-09-12T04:25:05;16.17;;;9.05;;
49610;SDS011;35515;48.766;9.176;2023-09-12T04:27:32;12.32;;;8.57;;
49610;SDS011;35515;48.766;9.176;2023-09-12T04:29:59;15.27;;;9.07;;
49610;SDS011;35515;48.766;9.176;2023-09-12T04:32:25;12.07;;;8.60;;
49610;SDS011;35515;48.766;9.176;2023-09-12T04:34:52;16.13;;;9.13;;
49610;SDS011;35515;48.766;9.176;2023-09-12T04:37:20;13.90;;;8.52;;
49610;SDS011;35515;48.766;9.176;2023-09-12T04:39:46;13.15;;;8.35;;
49610;SDS011;35515;48.766;9.176;2023-09-12T04:42:14;12.20;;;8.43;;
49610;SDS011;35515;48.766;9.176;2023-09-12T04:44:40;14.82;;;7.93;;
49610;SDS011;35515;48.766;9.176;2023-09-12T04:47:08;13.48;;;8.77;;
49610;SDS011;35515;48.766;9.176;2023-09-12T04:49:35;16.00;;;8.18;;
49610;SDS011;35515;48.766;9.176;2023-09-12T04:52:02;14.52;;;8.75;;
49610;SDS011;35515;48.766;9.176;2023-09-12T04:54:30;12.48;;;8.93;;
49610;SDS011;35515;48.766;9.176;2023-09-12T04:56:57;11.25;;;8.13;;
49610;SDS011;35515;48.766;9.176;2023-09-12T04:59:23;13.02;;;8.90;;
49610;SDS011;35515;48.766;9.176;2023-09-12T05:01:50;12.60;;;7.65;;
49610;SDS011;35515;48.766;9.176;2023-09-12T05:04:16;13.15;;;9.00;;
49610;SDS011;35515;48.766;9.176;2023-09-12T05:06:43;10.48;;;7.80;;
49610;SDS011;35515;48.766;9.176;2023-09-12T05:09:09;13.52;;;7.97;;
49610;SDS011;35515;48.766;9.176;2023-09-12T05:11:37;14.02;;;8.75;;
49610;SDS011;35515;48.766;9.176;2023-09-12T05:14:04;17.20;;;8.73;;
49610;SDS011;35515;48.766;9.176;2023-09-12T05:16:30;15.70;;;9.15;;
49610;SDS011;35515;48.766;9.176;2023-09-12T05:18:57;13.10;;;8.90;;
49610;SDS011;35515;48.766;9.176;2023-09-12T05:21:23;12.82;;;8.43;;
49610;SDS011;35515;48.766;9.176;2023-09-12T05:23:50;14.95;;;9.27;;
49610;SDS011;35515;48.766;9.176;2023-09-12T05:26:17;13.77;;;8.35;;
49610;SDS011;35515;48.766;9.176;2023-09-12T05:28:44;12.55;;;8.77;;
49610;SDS011;35515;48.766;9.176;2023-09-12T05:31:11;12.27;;;9.00;;
49610;SDS011;35515;48.766;9.176;2023-09-12T05:33:37;10.95;;;8.95;;
49610;SDS011;35515;48.766;9.176;2023-09-12T05:36:04;18.27;;;9.27;;
49610;SDS011;35515;48.766;9.176;2023-09-12T05:38:31;12.57;;;8.85;;
49610;SDS011;35515;48.766;9.176;2023-09-12T05:40:57;12.48;;;9.18;;
49610;SDS011;35515;48.766;9.176;2023-09-12T05:43:24;15.07;;;9.25;;
49610;SDS011;35515;48.766;9.176;2023-09-12T05:45:52;17.13;;;9.52;;
49610;SDS011;35515;48.766;9.176;2023-09-12T05:48:18;14.18;;;9.63;;
49610;SDS011;35515;48.766;9.176;2023-09-12T05:50:45;12.95;;;9.50;;
49610;SDS011;35515;48.766;9.176;2023-09-12T05:53:11;14.40;;;8.48;;
49610;SDS011;35515;48.766;9.176;2023-09-12T05:55:38;15.43;;;9.23;;
49610;SDS011;35515;48.766;9.176;2023-09-12T05:58:04;13.10;;;8.80;;
49610;SDS011;35515;48.766;9.176;2023-09-12T06:00:31;12.40;;;9.30;;
49610;SDS011;35515;48.766;9.176;2023-09-12T06:02:59;13.35;;;10.15;;
49610;SDS011;35515;48.766;9.176;2023-09-12T06:05:26;13.43;;;10.60;;
49610;SDS011;35515;48.766;9.176;2023-09-12T06:07:52;14.23;;;9.70;;
49610;SDS011;35515;48.766;9.176;2023-09-12T06:10:19;15.88;;;9.48;;
49610;SDS011;35515;48.766;9.176;2023-09-12T06:12:45;14.70;;;9.75;;
49610;SDS011;35515;48.766;9.176;2023-09-12T06:15:12;14.35;;;9.32;;
49610;SDS011;35515;48.766;9.176;2023-09-12T06:17:38;12.52;;;9.85;;
49610;SDS011;35515;48.766;9.176;2023-09-12T06:20:07;15.60;;;10.45;;
49610;SDS011;35515;48.766;9.176;2023-09-12T06:22:34;14.30;;;9.30;;
49610;SDS011;35515;48.766;9.176;2023-09-12T06:25:01;15.45;;;10.02;;
49610;SDS011;35515;48.766;9.176;2023-09-12T06:27:27;11.48;;;8.88;;
49610;SDS011;35515;48.766;9.176;2023-09-12T06:29:55;14.40;;;9.85;;
49610;SDS011;35515;48.766;9.176;2023-09-12T06:32:22;15.15;;;9.35;;
49610;SDS011;35515;48.766;9.176;2023-09-12T06:34:48;11.48;;;9.10;;
49610;SDS011;35515;48.766;9.176;2023-09-12T06:37:16;14.55;;;10.52;;
49610;SDS011;35515;48.766;9.176;2023-09-12T06:39:43;33.05;;;10.98;;
49610;SDS011;35515;48.766;9.176;2023-09-12T06:42:10;75.32;;;14.50;;
49610;SDS011;35515;48.766;9.176;2023-09-12T06:44:36;44.38;;;12.00;;
49610;SDS011;35515;48.766;9.176;2023-09-12T06:47:03;38.42;;;11.93;;
49610;SDS011;35515;48.766;9.176;2023-09-12T06:49:30;40.78;;;12.10;;
49610;SDS011;35515;48.766;9.176;2023-09-12T06:51:58;19.40;;;11.07;;
49610;SDS011;35515;48.766;9.176;2023-09-12T06:54:26;18.20;;;11.07;;
49610;SDS011;35515;48.766;9.176;2023-09-12T06:56:52;17.50;;;10.13;;
49610;SDS011;35515;48.766;9.176;2023-09-12T06:59:19;14.90;;;10.40;;
49610;SDS011;35515;48.766;9.176;2023-09-12T07:01:46;15.45;;;9.77;;
49610;SDS011;35515;48.766;9.176;2023-09-12T07:04:12;20.50;;;10.70;;
49610;SDS011;35515;48.766;9.176;2023-09-12T07:06:39;21.05;;;11.45;;
49610;SDS011;35515;48.766;9.176;2023-09-12T07:09:05;24.67;;;11.63;;
49610;SDS011;35515;48.766;9.176;2023-09-12T07:11:35;21.33;;;11.00;;
49610;SDS011;35515;48.766;9.176;2023-09-12T07:14:01;16.80;;;10.27;;
49610;SDS011;35515;48.766;9.176;2023-09-12T07:16:29;17.63;;;10.55;;
49610;SDS011;35515;48.766;9.176;2023-09-12T07:18:56;12.90;;;10.57;;
49610;SDS011;35515;48.766;9.176;2023-09-12T07:21:23;15.57;;;10.20;;
49610;SDS011;35515;48.766;9.176;2023-09-12T07:23:49;18.70;;;10.25;;
49610;SDS011;35515;48.766;9.176;2023-09-12T07:26:16;17.55;;;11.15;;
49610;SDS011;35515;48.766;9.176;2023-09-12T07:28:43;26.70;;;17.33;;
49610;SDS011;35515;48.766;9.176;2023-09-12T07:31:10;24.90;;;14.68;;
49610;SDS011;35515;48.766;9.176;2023-09-12T07:33:37;18.73;;;10.52;;
49610;SDS011;35515;48.766;9.176;2023-09-12T07:36:04;12.82;;;9.85;;
49610;SDS011;35515;48.766;9.176;2023-09-12T07:38:30;21.83;;;10.50;;
49610;SDS011;35515;48.766;9.176;2023-09-12T07:40:57;16.48;;;10.73;;
49610;SDS011;35515;48.766;9.176;2023-09-12T07:43:25;16.52;;;11.57;;
49610;SDS011;35515;48.766;9.176;2023-09-12T07:45:55;16.38;;;10.82;;
49610;SDS011;35515;48.766;9.176;2023-09-12T07:48:22;15.88;;;11.02;;
49610;SDS011;35515;48.766;9.176;2023-09-12T07:50:49;17.00;;;11.18;;
49610;SDS011;35515;48.766;9.176;2023-09-12T07:53:16;21.33;;;10.77;;
49610;SDS011;35515;48.766;9.176;2023-09-12T07:55:43;17.20;;;10.18;;
49610;SDS011;35515;48.766;9.176;2023-09-12T07:58:11;21.80;;;11.30;;
49610;SDS011;35515;48.766;9.176;2023-09-12T08:00:38;28.77;;;12.50;;
49610;SDS011;35515;48.766;9.176;2023-09-12T08:03:06;39.45;;;11.50;;
49610;SDS011;35515;48.766;9.176;2023-09-12T08:05:33;23.13;;;11.48;;
49610;SDS011;35515;48.766;9.176;2023-09-12T08:07:59;22.15;;;10.48;;
49610;SDS011;35515;48.766;9.176;2023-09-12T08:10:26;17.75;;;10.60;;
49610;SDS011;35515;48.766;9.176;2023-09-12T08:12:53;15.50;;;10.93;;
49610;SDS011;35515;48.766;9.176;2023-09-12T08:15:20;18.33;;;10.93;;
49610;SDS011;35515;48.766;9.176;2023-09-12T08:17:46;18.38;;;11.02;;
49610;SDS011;35515;48.766;9.176;2023-09-12T08:20:18;16.07;;;11.10;;
49610;SDS011;35515;48.766;9.176;2023-09-12T08:22:45;17.23;;;11.27;;
49610;SDS011;35515;48.766;9.176;2023-09-12T08:25:11;16.60;;;11.00;;
49610;SDS011;35515;48.766;9.176;2023-09-12T08:27:39;14.88;;;10.82;;
49610;SDS011;35515;48.766;9.176;2023-09-12T08:30:07;16.15;;;9.80;;
49610;SDS011;35515;48.766;9.176;2023-09-12T08:32:34;17.05;;;11.00;;
49610;SDS011;35515;48.766;9.176;2023-09-12T08:35:02;21.73;;;10.90;;
49610;SDS011;35515;48.766;9.176;2023-09-12T08:37:30;14.85;;;9.77;;
49610;SDS011;35515;48.766;9.176;2023-09-12T08:39:57;13.45;;;10.00;;
49610;SDS011;35515;48.766;9.176;2023-09-12T08:42:24;15.27;;;9.30;;
49610;SDS011;35515;48.766;9.176;2023-09-12T08:44:53;24.63;;;10.90;;
49610;SDS011;35515;48.766;9.176;2023-09-12T08:47:19;18.08;;;9.82;;
49610;SDS011;35515;48.766;9.176;2023-09-12T08:49:49;15.40;;;9.45;;
49610;SDS011;35515;48.766;9.176;2023-09-12T08:52:15;17.77;;;10.43;;
49610;SDS011;35515;48.766;9.176;2023-09-12T08:54:43;13.85;;;9.80;;
49610;SDS011;35515;48.766;9.176;2023-09-12T08:57:10;20.10;;;11.25;;
49610;SDS011;35515;48.766;9.176;2023-09-12T08:59:38;17.73;;;10.35;;
49610;SDS011;35515;48.766;9.176;2023-09-12T09:02:07;14.02;;;10.00;;
49610;SDS011;35515;48.766;9.176;2023-09-12T09:04:35;16.63;;;10.82;;
49610;SDS011;35515;48.766;9.176;2023-09-12T09:07:03;17.52;;;10.57;;
49610;SDS011;35515;48.766;9.176;2023-09-12T09:09:30;16.70;;;10.30;;
49610;SDS011;35515;48.766;9.176;2023-09-12T09:11:59;12.48;;;9.68;;
49610;SDS011;35515;48.766;9.176;2023-09-12T09:14:26;15.85;;;10.35;;
49610;SDS011;35515;48.766;9.176;2023-09-12T09:16:55;14.77;;;9.82;;
49610;SDS011;35515;48.766;9.176;2023-09-12T09:19:22;20.60;;;9.70;;
49610;SDS011;35515;48.766;9.176;2023-09-12T09:21:50;13.25;;;9.52;;
49610;SDS011;35515;48.766;9.176;2023-09-12T09:24:17;15.65;;;9.43;;
49610;SDS011;35515;48.766;9.176;2023-09-12T09:26:45;13.40;;;9.32;;
49610;SDS011;35515;48.766;9.176;2023-09-12T09:29:15;12.38;;;9.65;;
49610;SDS011;35515;48.766;9.176;2023-09-12T09:31:43;14.20;;;9.15;;
49610;SDS011;35515;48.766;9.176;2023-09-12T09:34:12;14.70;;;9.95;;
49610;SDS011;35515;48.766;9.176;2023-09-12T09:36:42;15.93;;;10.68;;
49610;SDS011;35515;48.766;9.176;2023-09-12T09:39:10;16.77;;;9.93;;
49610;SDS011;35515;48.766;9.176;2023-09-12T09:41:38;14.55;;;9.93;;
49610;SDS011;35515;48.766;9.176;2023-09-12T09:44:05;16.58;;;8.95;;
49610;SDS011;35515;48.766;9.176;2023-09-12T09:46:34;16.60;;;9.15;;
49610;SDS011;35515;48.766;9.176;2023-09-12T09:49:01;16.60;;;9.10;;
49610;SDS011;35515;48.766;9.176;2023-09-12T09:51:29;16.38;;;9.65;;
49610;SDS011;35515;48.766;9.176;2023-09-12T09:53:56;15.00;;;9.25;;
49610;SDS011;35515;48.766;9.176;2023-09-12T09:56:23;15.10;;;9.73;;
49610;SDS011;35515;48.766;9.176;2023-09-12T09:58:50;17.17;;;10.02;;
49610;SDS011;35515;48.766;9.176;2023-09-12T10:01:18;14.43;;;9.52;;
49610;SDS011;35515;48.766;9.176;2023-09-12T10:03:49;13.07;;;9.77;;
49610;SDS011;35515;48.766;9.176;2023-09-12T10:06:16;14.75;;;9.35;;
49610;SDS011;35515;48.766;9.176;2023-09-12T10:08:44;16.27;;;9.57;;
49610;SDS011;35515;48.766;9.176;2023-09-12T10:11:12;15.07;;;10.23;;
49610;SDS011;35515;48.766;9.176;2023-09-12T10:13:42;16.13;;;10.20;;
49610;SDS011;35515;48.766;9.176;2023-09-12T10:16:12;20.08;;;10.02;;
49610;SDS011;35515;48.766;9.176;2023-09-12T10:18:42;12.88;;;9.57;;
49610;SDS011;35515;48.766;9.176;2023-09-12T10:21:19;15.90;;;9.88;;
49610;SDS011;35515;48.766;9.176;2023-09-12T10:23:50;18.00;;;9.45;;
49610;SDS011;35515;48.766;9.176;2023-09-12T10:26:17;15.70;;;9.82;;
49610;SDS011;35515;48.766;9.176;2023-09-12T10:28:44;13.30;;;9.27;;
49610;SDS011;35515;48.766;9.176;2023-09-12T10:31:12;19.25;;;9.55;;
49610;SDS011;35515;48.766;9.176;2023-09-12T10:33:39;13.20;;;9.27;;
49610;SDS011;35515;48.766;9.176;2023-09-12T10:36:06;15.38;;;9.25;;
49610;SDS011;35515;48.766;9.176;2023-09-12T10:38:38;19.08;;;10.05;;
49610;SDS011;35515;48.766;9.176;2023-09-12T10:41:08;12.77;;;9.20;;
49610;SDS011;35515;48.766;9.176;2023-09-12T10:43:37;16.67;;;10.52;;
49610;SDS011;35515;48.766;9.176;2023-09-12T10:46:05;14.15;;;9.32;;
49610;SDS011;35515;48.766;9.176;2023-09-12T10:48:32;18.23;;;9.35;;
49610;SDS011;35515;48.766;9.176;2023-09-12T10:51:00;12.48;;;9.57;;
49610;SDS011;35515;48.766;9.176;2023-09-12T10:53:28;14.68;;;8.50;;
49610;SDS011;35515;48.766;9.176;2023-09-12T10:56:00;15.40;;;9.15;;
49610;SDS011;35515;48.766;9.176;2023-09-12T11:01:39;15.65;;;9.60;;
49610;SDS011;35515;48.766;9.176;2023-09-12T11:10:20;14.40;;;8.80;;
49610;SDS011;35515;48.766;9.176;2023-09-12T11:12:49;16.17;;;8.68;;
49610;SDS011;35515;48.766;9.176;2023-09-12T11:15:17;16.83;;;10.95;;
49610;SDS011;35515;48.766;9.176;2023-09-12T11:17:45;11.85;;;8.95;;
49610;SDS011;35515;48.766;9.176;2023-09-12T11:20:13;13.57;;;8.63;;
49610;SDS011;35515;48.766;9.176;2023-09-12T11:22:41;19.00;;;9.27;;
49610;SDS011;35515;48.766;9.176;2023-09-12T11:25:16;12.85;;;8.65;;
49610;SDS011;35515;48.766;9.176;2023-09-12T11:27:44;13.75;;;8.82;;
49610;SDS011;35515;48.766;9.176;2023-09-12T11:30:14;13.43;;;9.05;;
49610;SDS011;35515;48.766;9.176;2023-09-12T11:32:40;14.57;;;8.98;;
49610;SDS011;35515;48.766;9.176;2023-09-12T11:35:11;17.77;;;9.30;;
49610;SDS011;35515;48.766;9.176;2023-09-12T11:37:40;13.02;;;8.90;;
49610;SDS011;35515;48.766;9.176;2023-09-12T11:40:15;14.30;;;8.60;;
49610;SDS011;35515;48.766;9.176;2023-09-12T11:42:43;12.30;;;8.05;;
49610;SDS011;35515;48.766;9.176;2023-09-12T11:45:11;11.50;;;8.13;;
49610;SDS011;35515;48.766;9.176;2023-09-12T11:47:41;11.20;;;8.07;;
49610;SDS011;35515;48.766;9.176;2023-09-12T11:50:08;13.13;;;8.02;;
49610;SDS011;35515;48.766;9.176;2023-09-12T11:52:35;11.00;;;8.25;;
49610;SDS011;35515;48.766;9.176;2023-09-12T11:55:02;11.50;;;8.25;;
49610;SDS011;35515;48.766;9.176;2023-09-12T11:57:29;11.95;;;8.10;;
49610;SDS011;35515;48.766;9.176;2023-09-12T11:59:57;17.45;;;8.60;;
49610;SDS011;35515;48.766;9.176;2023-09-12T12:02:23;15.77;;;8.82;;
49610;SDS011;35515;48.766;9.176;2023-09-12T12:04:52;12.65;;;8.35;;
49610;SDS011;35515;48.766;9.176;2023-09-12T12:07:19;11.52;;;8.52;;
49610;SDS011;35515;48.766;9.176;2023-09-12T12:09:46;14.13;;;7.93;;
49610;SDS011;35515;48.766;9.176;2023-09-12T12:12:13;12.00;;;7.97;;
49610;SDS011;35515;48.766;9.176;2023-09-12T12:14:40;13.98;;;7.82;;
49610;SDS011;35515;48.766;9.176;2023-09-12T12:17:10;12.63;;;8.05;;
49610;SDS011;35515;48.766;9.176;2023-09-12T12:19:38;9.20;;;7.60;;
49610;SDS011;35515;48.766;9.176;2023-09-12T12:22:06;14.93;;;7.28;;
49610;SDS011;35515;48.766;9.176;2023-09-12T12:24:38;13.27;;;7.55;;
49610;SDS011;35515;48.766;9.176;2023-09-12T12:27:05;10.82;;;8.27;;
49610;SDS011;35515;48.766;9.176;2023-09-12T12:29:33;12.02;;;8.50;;
49610;SDS011;35515;48.766;9.176;2023-09-12T12:32:00;12.30;;;7.90;;
49610;SDS011;35515;48.766;9.176;2023-09-12T12:34:27;12.63;;;7.88;;
49610;SDS011;35515;48.766;9.176;2023-09-12T12:36:53;13.63;;;8.40;;
49610;SDS011;35515;48.766;9.176;2023-09-12T12:39:21;11.65;;;8.02;;
49610;SDS011;35515;48.766;9.176;2023-09-12T12:41:51;12.75;;;7.28;;
49610;SDS011;35515;48.766;9.176;2023-09-12T12:44:18;13.07;;;6.93;;
49610;SDS011;35515;48.766;9.176;2023-09-12T12:46:48;12.48;;;7.90;;
49610;SDS011;35515;48.766;9.176;2023-09-12T12:49:15;11.13;;;7.22;;
49610;SDS011;35515;48.766;9.176;2023-09-12T12:51:42;15.23;;;7.15;;
49610;SDS011;35515;48.766;9.176;2023-09-12T12:54:09;9.18;;;7.20;;
49610;SDS011;35515;48.766;9.176;2023-09-12T12:56:36;10.90;;;7.15;;
49610;SDS011;35515;48.766;9.176;2023-09-12T12:59:04;12.63;;;7.43;;
49610;SDS011;35515;48.766;9.176;2023-09-12T13:01:34;11.03;;;6.63;;
49610;SDS011;35515;48.766;9.176;2023-09-12T13:04:01;10.82;;;7.15;;
49610;SDS011;35515;48.766;9.176;2023-09-12T13:06:27;11.40;;;6.75;;
49610;SDS011;35515;48.766;9.176;2023-09-12T13:08:55;9.30;;;6.55;;
49610;SDS011;35515;48.766;9.176;2023-09-12T13:11:22;12.68;;;6.65;;
49610;SDS011;35515;48.766;9.176;2023-09-12T13:13:50;7.05;;;5.95;;
49610;SDS011;35515;48.766;9.176;2023-09-12T13:16:16;13.20;;;6.55;;
49610;SDS011;35515;48.766;9.176;2023-09-12T13:18:43;11.57;;;6.43;;
49610;SDS011;35515;48.766;9.176;2023-09-12T13:21:10;10.30;;;6.45;;
49610;SDS011;35515;48.766;9.176;2023-09-12T13:23:37;9.43;;;6.68;;
49610;SDS011;35515;48.766;9.176;2023-09-12T13:26:05;12.68;;;6.75;;
49610;SDS011;35515;48.766;9.176;2023-09-12T13:28:33;10.98;;;6.22;;
49610;SDS011;35515;48.766;9.176;2023-09-12T13:31:01;11.93;;;6.95;;
49610;SDS011;35515;48.766;9.176;2023-09-12T13:33:27;12.90;;;7.43;;
49610;SDS011;35515;48.766;9.176;2023-09-12T13:35:54;10.30;;;7.63;;
49610;SDS011;35515;48.766;9.176;2023-09-12T13:38:21;11.80;;;6.25;;
49610;SDS011;35515;48.766;9.176;2023-09-12T13:40:48;12.27;;;6.70;;
49610;SDS011;35515;48.766;9.176;2023-09-12T13:43:14;10.60;;;6.68;;
49610;SDS011;35515;48.766;9.176;2023-09-12T13:45:41;11.30;;;5.75;;
49610;SDS011;35515;48.766;9.176;2023-09-12T13:48:09;12.95;;;6.57;;
49610;SDS011;35515;48.766;9.176;2023-09-12T13:50:37;9.85;;;6.63;;
49610;SDS011;35515;48.766;9.176;2023-09-12T13:53:04;8.18;;;5.63;;
49610;SDS011;35515;48.766;9.176;2023-09-12T13:55:31;8.90;;;6.10;;
49610;SDS011;35515;48.766;9.176;2023-09-12T13:57:58;11.20;;;7.22;;
49610;SDS011;35515;48.766;9.176;2023-09-12T14:00:25;9.57;;;6.20;;
49610;SDS011;35515;48.766;9.176;2023-09-12T14:02:51;10.63;;;6.13;;
49610;SDS011;35515;48.766;9.176;2023-09-12T14:05:19;15.02;;;6.70;;
49610;SDS011;35515;48.766;9.176;2023-09-12T14:07:46;9.38;;;6.35;;
49610;SDS011;35515;48.766;9.176;2023-09-12T14:10:12;9.60;;;6.45;;
49610;SDS011;35515;48.766;9.176;2023-09-12T14:12:39;10.48;;;7.20;;
49610;SDS011;35515;48.766;9.176;2023-09-12T14:15:06;8.43;;;7.15;;
49610;SDS011;35515;48.766;9.176;2023-09-12T14:17:33;12.25;;;8.05;;
49610;SDS011;35515;48.766;9.176;2023-09-12T14:20:00;10.38;;;6.82;;
49610;SDS011;35515;48.766;9.176;2023-09-12T14:22:28;10.25;;;6.78;;
49610;SDS011;35515;48.766;9.176;2023-09-12T14:24:54;11.50;;;6.63;;
49610;SDS011;35515;48.766;9.176;2023-09-12T14:27:21;10.75;;;7.00;;
49610;SDS011;35515;48.766;9.176;2023-09-12T14:29:47;11.55;;;6.97;;
49610;SDS011;35515;48.766;9.176;2023-09-12T14:32:15;18.48;;;7.80;;
49610;SDS011;35515;48.766;9.176;2023-09-12T14:34:42;12.48;;;6.93;;
49610;SDS011;35515;48.766;9.176;2023-09-12T14:37:10;12.45;;;6.90;;
49610;SDS011;35515;48.766;9.176;2023-09-12T14:39:38;9.75;;;7.03;;
49610;SDS011;35515;48.766;9.176;2023-09-12T14:42:04;13.50;;;7.68;;
49610;SDS011;35515;48.766;9.176;2023-09-12T14:44:33;9.27;;;7.20;;
49610;SDS011;35515;48.766;9.176;2023-09-12T14:47:00;12.48;;;6.63;;